createdAt,value
2023-03-22T00:01:05.901Z,98.08
2023-03-22T00:03:36.497Z,98.17
2023-03-22T00:06:26.092Z,98.29
2023-03-22T00:09:03.702Z,98.22
2023-03-22T00:12:07.386Z,98.39
2023-03-22T00:14:40.922Z,98.16
2023-03-22T00:19:25.895Z,98.24
2023-03-22T00:20:46.684Z,97.98
2023-03-22T00:23:21.391Z,97.94
2023-03-22T00:26:09.411Z,98.25
2023-03-22T00:28:44.597Z,98.01
2023-03-22T00:31:30.968Z,98.03
2023-03-22T00:34:15.791Z,98.04
2023-03-22T00:37:18.005Z,98.18
2023-03-22T00:40:13.892Z,97.78
2023-03-22T00:42:56.806Z,97.74
2023-03-22T00:45:51.547Z,97.74
2023-03-22T00:48:51.646Z,97.72
2023-03-22T00:52:05.874Z,97.72
2023-03-22T00:55:38.492Z,97.49
2023-03-22T00:58:29.452Z,97.42
2023-03-22T01:01:32.148Z,97.43
2023-03-22T01:04:01.142Z,97.18
2023-03-22T01:06:34.361Z,96.82
2023-03-22T01:09:06.650Z,96.84
2023-03-22T01:11:53.497Z,97.11
2023-03-22T01:14:55.912Z,97.38
2023-03-22T01:17:39.891Z,97.43
2023-03-22T01:20:10.221Z,97.26
2023-03-22T01:22:56.733Z,96.96
2023-03-22T01:25:37.686Z,97.29
2023-03-22T01:28:17.791Z,97.18
2023-03-22T01:31:00.306Z,97.29
2023-03-22T01:33:45.491Z,97.06
2023-03-22T01:36:38.917Z,96.97
2023-03-22T01:39:25.717Z,96.88
2023-03-22T01:42:28.411Z,96.94
2023-03-22T01:45:46.082Z,96.78
2023-03-22T01:49:18.105Z,96.71
2023-03-22T01:52:15.417Z,96.60
2023-03-22T01:54:56.267Z,96.63
2023-03-22T01:57:26.854Z,96.75
2023-03-22T02:00:53.033Z,96.72
2023-03-22T02:03:36.914Z,96.85
2023-03-22T02:06:07.509Z,96.79
2023-03-22T02:08:45.582Z,96.74
2023-03-22T02:11:37.653Z,96.62
2023-03-22T02:14:45.509Z,96.71
2023-03-22T02:18:12.725Z,96.63
2023-03-22T02:21:12.908Z,96.78
2023-03-22T02:25:15.919Z,97.21
2023-03-22T02:27:45.122Z,97.16
2023-03-22T02:31:18.742Z,97.07
2023-03-22T02:34:35.835Z,96.65
2023-03-22T02:41:35.669Z,96.89
2023-03-22T02:44:28.139Z,96.82
2023-03-22T02:47:51.583Z,96.65
2023-03-22T02:50:07.197Z,96.82
2023-03-22T02:52:46.568Z,96.35
2023-03-22T02:55:28.064Z,96.44
2023-03-22T02:58:09.469Z,96.44
2023-03-22T03:00:43.196Z,96.25
2023-03-22T03:03:29.866Z,96.28
2023-03-22T03:06:26.310Z,96.28
2023-03-22T03:09:04.097Z,96.00
2023-03-22T03:11:46.395Z,96.32
2023-03-22T03:15:00.312Z,96.34
2023-03-22T03:18:53.356Z,96.09
2023-03-22T03:20:54.008Z,96.28
2023-03-22T03:24:26.361Z,96.10
2023-03-22T03:27:10.210Z,95.81
2023-03-22T03:30:20.677Z,95.88
2023-03-22T03:36:44.670Z,95.97
2023-03-22T03:39:53.457Z,95.68
2023-03-22T03:43:10.732Z,95.87
2023-03-22T03:46:13.945Z,95.66
2023-03-22T03:49:26.625Z,95.59
2023-03-22T03:52:27.450Z,95.78
2023-03-22T03:55:24.153Z,95.89
2023-03-22T03:58:18.227Z,95.55
2023-03-22T04:00:55.409Z,95.83
2023-03-22T04:03:42.682Z,95.67
2023-03-22T04:06:35.071Z,95.31
2023-03-22T04:09:15.561Z,95.25
2023-03-22T04:12:04.528Z,94.92
2023-03-22T04:15:26.224Z,94.99
2023-03-22T04:17:47.319Z,94.97
2023-03-22T04:20:29.790Z,94.98
2023-03-22T04:26:01.681Z,94.65
2023-03-22T04:29:14.912Z,94.43
2023-03-22T04:32:01.764Z,94.56
2023-03-22T04:34:46.061Z,94.72
2023-03-22T04:37:44.606Z,94.46
2023-03-22T04:40:48.325Z,94.66
2023-03-22T04:43:37.319Z,94.77
2023-03-22T04:46:25.254Z,94.72
2023-03-22T04:49:04.369Z,94.51
2023-03-22T04:54:54.485Z,94.69
2023-03-22T05:00:41.723Z,94.48
2023-03-22T05:03:36.855Z,94.68
2023-03-22T05:06:35.775Z,94.45
2023-03-22T05:11:08.485Z,94.57
2023-03-22T05:13:04.412Z,94.43
2023-03-22T05:15:40.196Z,94.53
2023-03-22T05:18:40.466Z,94.20
2023-03-22T05:21:18.913Z,94.55
2023-03-22T05:24:43.652Z,94.23
2023-03-22T05:27:25.948Z,94.27
2023-03-22T05:32:28.566Z,94.29
2023-03-22T05:34:46.199Z,94.25
2023-03-22T05:37:43.090Z,93.79
2023-03-22T05:41:48.401Z,93.83
2023-03-22T05:44:20.455Z,93.85
2023-03-22T05:47:31.563Z,94.04
2023-03-22T05:50:09.396Z,93.61
2023-03-22T05:53:15.065Z,93.79
2023-03-22T05:58:46.423Z,93.50
2023-03-22T06:02:43.779Z,93.24
2023-03-22T06:05:34.607Z,93.35
2023-03-22T06:08:28.128Z,93.34
2023-03-22T06:10:59.933Z,93.11
2023-03-22T06:13:31.431Z,93.24
2023-03-22T06:16:34.915Z,93.16
2023-03-22T06:19:34.442Z,93.01
2023-03-22T06:22:23.674Z,92.63
2023-03-22T06:25:46.876Z,92.28
2023-03-22T06:28:11.772Z,92.01
2023-03-22T06:31:07.221Z,92.12
2023-03-22T06:34:03.375Z,91.86
2023-03-22T06:38:54.004Z,91.86
2023-03-22T06:40:44.501Z,91.65
2023-03-22T06:43:46.840Z,91.05
2023-03-22T06:46:25.168Z,91.31
2023-03-22T06:49:38.457Z,90.91
2023-03-22T06:52:39.476Z,90.51
2023-03-22T06:55:44.011Z,90.44
2023-03-22T06:59:09.086Z,90.19
2023-03-22T07:06:02.703Z,89.52
2023-03-22T07:09:41.747Z,89.68
2023-03-22T07:12:11.954Z,89.44
2023-03-22T07:15:25.035Z,89.33
2023-03-22T07:18:36.996Z,89.08
2023-03-22T07:22:14.669Z,88.96
2023-03-22T07:24:28.685Z,89.07
2023-03-22T07:31:55.420Z,88.77
2023-03-22T07:35:16.069Z,88.62
2023-03-22T07:38:14.816Z,88.37
2023-03-22T07:44:43.368Z,87.95
2023-03-22T07:49:17.555Z,88.13
2023-03-22T07:54:47.756Z,87.79
2023-03-22T07:57:18.626Z,87.54
2023-03-22T07:59:57.489Z,87.46
2023-03-22T08:02:32.682Z,86.84
2023-03-22T08:05:06.145Z,86.67
2023-03-22T08:07:55.593Z,86.52
2023-03-22T08:10:26.006Z,86.30
2023-03-22T08:13:06.390Z,86.03
2023-03-22T08:15:41.812Z,85.29
2023-03-22T08:18:34.949Z,85.21
2023-03-22T08:21:06.738Z,84.68
2023-03-22T08:23:41.885Z,84.02
2023-03-22T08:26:11.803Z,83.64
2023-03-22T08:28:48.036Z,83.63
2023-03-22T08:31:19.374Z,83.30
2023-03-22T08:33:53.792Z,82.79
2023-03-22T08:36:24.251Z,82.31
2023-03-22T08:39:04.060Z,82.19
2023-03-22T08:41:49.915Z,82.10
2023-03-22T08:44:21.667Z,81.69
2023-03-22T08:46:58.664Z,81.76
2023-03-22T08:49:29.215Z,81.26
2023-03-22T08:52:07.087Z,80.97
2023-03-22T08:54:39.121Z,81.14
2023-03-22T08:57:13.403Z,81.28
2023-03-22T08:59:46.571Z,81.03
2023-03-22T09:02:15.505Z,81.08
2023-03-22T09:04:51.788Z,80.94
2023-03-22T09:07:23.330Z,80.72
2023-03-22T09:09:58.243Z,80.96
2023-03-22T09:12:35.941Z,79.87
2023-03-22T09:15:15.621Z,78.32
2023-03-22T09:17:49.019Z,77.12
2023-03-22T09:20:18.571Z,76.32
2023-03-22T09:22:54.615Z,75.71
2023-03-22T09:25:28.044Z,76.30
2023-03-22T09:27:57.124Z,76.24
2023-03-22T09:30:28.764Z,76.93
2023-03-22T09:33:01.221Z,77.18
2023-03-22T09:35:33.066Z,77.20
2023-03-22T09:38:12.673Z,77.37
2023-03-22T09:41:03.101Z,77.43
2023-03-22T09:43:37.442Z,77.02
2023-03-22T09:46:16.868Z,77.64
2023-03-22T09:48:52.463Z,77.89
2023-03-22T09:51:39.669Z,77.93
2023-03-22T09:54:39.083Z,77.82
2023-03-22T09:57:12.720Z,78.00
2023-03-22T09:59:49.163Z,77.52
2023-03-22T10:02:47.526Z,76.61
2023-03-22T10:05:27.164Z,76.13
2023-03-22T10:08:33.053Z,75.77
2023-03-22T10:11:12.630Z,76.00
2023-03-22T10:13:48.508Z,75.86
2023-03-22T10:16:35.724Z,75.83
2023-03-22T10:19:15.017Z,75.47
2023-03-22T10:21:46.711Z,75.11
2023-03-22T10:24:22.133Z,74.58
2023-03-22T10:26:51.352Z,74.68
2023-03-22T10:29:25.268Z,73.98
2023-03-22T10:31:59.788Z,74.11
2023-03-22T10:34:35.099Z,74.16
2023-03-22T10:37:23.189Z,74.21
2023-03-22T10:40:10.045Z,73.69
2023-03-22T10:42:46.556Z,73.93
2023-03-22T10:45:24.390Z,73.98
2023-03-22T10:48:01.427Z,73.53
2023-03-22T10:50:59.745Z,73.68
2023-03-22T10:53:43.006Z,73.64
2023-03-22T10:56:20.530Z,73.55
2023-03-22T10:58:52.678Z,73.25
2023-03-22T11:01:30.625Z,72.86
2023-03-22T11:04:09.019Z,72.30
2023-03-22T11:06:54.823Z,72.13
2023-03-22T11:09:26.527Z,71.75
2023-03-22T11:12:02.729Z,71.32
2023-03-22T11:15:00.305Z,71.64
2023-03-22T11:17:35.526Z,71.65
2023-03-22T11:23:17.985Z,71.04
2023-03-22T11:25:50.156Z,71.00
2023-03-22T11:28:24.109Z,71.17
2023-03-22T11:31:04.954Z,70.58
2023-03-22T11:33:35.727Z,70.43
2023-03-22T11:36:07.148Z,69.87
2023-03-22T11:38:40.277Z,69.72
2023-03-22T11:41:10.537Z,68.33
2023-03-22T11:43:45.823Z,67.90
2023-03-22T11:46:16.558Z,67.39
2023-03-22T11:48:48.800Z,66.86
2023-03-22T11:51:29.590Z,66.93
2023-03-22T11:54:07.801Z,65.83
2023-03-22T11:56:39.524Z,65.87
2023-03-22T11:59:11.225Z,65.62
2023-03-22T12:01:44.534Z,65.82
2023-03-22T12:04:16.776Z,65.79
2023-03-22T12:06:45.653Z,66.19
2023-03-22T12:09:28.237Z,65.79
2023-03-22T12:12:00.520Z,65.28
2023-03-22T12:14:32.404Z,65.80
2023-03-22T12:17:09.186Z,66.06
2023-03-22T12:19:53.349Z,66.40
2023-03-22T12:22:27.637Z,66.54
2023-03-22T12:24:57.936Z,66.55
2023-03-22T12:27:34.494Z,66.18
2023-03-22T12:30:14.716Z,66.24
2023-03-22T12:32:48.223Z,66.02
2023-03-22T12:35:21.586Z,66.35
2023-03-22T12:37:53.025Z,66.79
2023-03-22T12:40:26.487Z,67.95
2023-03-22T12:43:09.402Z,68.35
2023-03-22T12:45:44.476Z,69.39
2023-03-22T12:48:28.050Z,70.15
2023-03-22T12:50:59.762Z,71.09
2023-03-22T12:53:35.764Z,71.56
2023-03-22T12:56:06.576Z,71.84
2023-03-22T12:58:35.369Z,72.05
2023-03-22T13:01:20.811Z,73.48
2023-03-22T13:03:55.106Z,74.51
2023-03-22T13:06:35.187Z,74.76
2023-03-22T13:09:19.463Z,75.14
2023-03-22T13:11:52.257Z,75.53
2023-03-22T13:15:01.219Z,76.01
2023-03-22T13:17:42.645Z,76.54
2023-03-22T13:21:26.051Z,76.82
2023-03-22T13:24:02.135Z,77.06
2023-03-22T13:26:36.497Z,77.46
2023-03-22T13:29:15.476Z,78.39
2023-03-22T13:31:46.323Z,78.95
2023-03-22T13:34:20.981Z,79.04
2023-03-22T13:36:57.151Z,79.55
2023-03-22T13:39:27.639Z,79.81
2023-03-22T13:42:19.807Z,80.47
2023-03-22T13:44:57.328Z,80.21
2023-03-22T13:47:39.300Z,80.32
2023-03-22T13:50:19.780Z,80.42
2023-03-22T13:53:05.502Z,80.64
2023-03-22T13:56:01.181Z,80.38
2023-03-22T14:00:09.563Z,80.93
2023-03-22T14:03:16.963Z,81.18
2023-03-22T14:05:49.965Z,81.51
2023-03-22T14:08:38.861Z,81.98
2023-03-22T14:11:23.821Z,82.95
2023-03-22T14:13:56.575Z,83.10
2023-03-22T14:16:38.627Z,83.44
2023-03-22T14:19:22.596Z,84.46
